sensor_id;sensor_type;location;lat;lon;timestamp;pressure;altitude;pressure_sealevel;temperature
25985;BMP280;66753;53.848;10.658;2024-01-15T00:00:33;99060.63;;;2.56
25985;BMP280;66753;53.848;10.658;2024-01-15T00:15:36;99045.09;;;2.60
25985;BMP280;66753;53.848;10.658;2024-01-15T00:30:38;99032.34;;;2.79
25985;BMP280;66753;53.848;10.658;2024-01-15T00:45:40;98975.19;;;2.89
25985;BMP280;66753;53.848;10.658;2024-01-15T01:00:41;98947.34;;;3.05
25985;BMP280;66753;53.848;10.658;2024-01-15T01:15:43;98956.66;;;2.94
25985;BMP280;66753;53.848;10.658;2024-01-15T01:30:44;98965.03;;;2.67
25985;BMP280;66753;53.848;10.658;2024-01-15T01:45:46;98955.81;;;2.49
25985;BMP280;66753;53.848;10.658;2024-01-15T02:00:47;98948.84;;;2.53
25985;BMP280;66753;53.848;10.658;2024-01-15T02:15:49;98955.44;;;2.59
25985;BMP280;66753;53.848;10.658;2024-01-15T02:30:51;98943.81;;;2.69
25985;BMP280;66753;53.848;10.658;2024-01-15T02:45:53;98926.72;;;2.71
25985;BMP280;66753;53.848;10.658;2024-01-15T03:00:55;98917.16;;;2.75
25985;BMP280;66753;53.848;10.658;2024-01-15T03:15:56;98912.41;;;2.89
25985;BMP280;66753;53.848;10.658;2024-01-15T03:30:57;98916.78;;;2.85
25985;BMP280;66753;53.848;10.658;2024-01-15T03:45:59;98935.53;;;2.87
25985;BMP280;66753;53.848;10.658;2024-01-15T04:01:00;98941.41;;;2.96
25985;BMP280;66753;53.848;10.658;2024-01-15T04:16:02;98936.66;;;2.98
25985;BMP280;66753;53.848;10.658;2024-01-15T04:31:04;98937.38;;;2.87
25985;BMP280;66753;53.848;10.658;2024-01-15T04:46:06;98930.03;;;2.80
25985;BMP280;66753;53.848;10.658;2024-01-15T05:01:08;98939.22;;;2.86
25985;BMP280;66753;53.848;10.658;2024-01-15T05:16:10;98926.59;;;2.88
25985;BMP280;66753;53.848;10.658;2024-01-15T05:31:11;98942.38;;;2.92
25985;BMP280;66753;53.848;10.658;2024-01-15T05:46:13;98962.09;;;3.10
25985;BMP280;66753;53.848;10.658;2024-01-15T06:01:16;98926.81;;;3.16
25985;BMP280;66753;53.848;10.658;2024-01-15T06:16:17;98924.69;;;3.21
25985;BMP280;66753;53.848;10.658;2024-01-15T06:31:21;98932.22;;;3.11
25985;BMP280;66753;53.848;10.658;2024-01-15T06:46:23;98925.03;;;3.08
25985;BMP280;66753;53.848;10.658;2024-01-15T07:01:24;98951.88;;;2.96
25985;BMP280;66753;53.848;10.658;2024-01-15T07:16:25;98974.13;;;2.90
25985;BMP280;66753;53.848;10.658;2024-01-15T07:31:27;98992.03;;;3.00
25985;BMP280;66753;53.848;10.658;2024-01-15T07:46:28;98999.94;;;3.12
25985;BMP280;66753;53.848;10.658;2024-01-15T08:01:29;99018.50;;;3.19
25985;BMP280;66753;53.848;10.658;2024-01-15T08:16:31;99026.44;;;3.23
25985;BMP280;66753;53.848;10.658;2024-01-15T08:31:32;99027.50;;;3.30
25985;BMP280;66753;53.848;10.658;2024-01-15T08:46:34;99052.63;;;3.43
25985;BMP280;66753;53.848;10.658;2024-01-15T09:01:35;99063.78;;;3.53
25985;BMP280;66753;53.848;10.658;2024-01-15T09:16:36;99084.22;;;3.71
25985;BMP280;66753;53.848;10.658;2024-01-15T09:31:38;99123.59;;;3.83
25985;BMP280;66753;53.848;10.658;2024-01-15T09:46:40;99093.31;;;3.74
25985;BMP280;66753;53.848;10.658;2024-01-15T10:01:43;99049.84;;;3.61
25985;BMP280;66753;53.848;10.658;2024-01-15T10:16:46;99058.88;;;3.51
25985;BMP280;66753;53.848;10.658;2024-01-15T10:31:48;99080.72;;;3.34
25985;BMP280;66753;53.848;10.658;2024-01-15T10:46:51;99104.09;;;3.39
25985;BMP280;66753;53.848;10.658;2024-01-15T11:01:52;99100.88;;;3.34
25985;BMP280;66753;53.848;10.658;2024-01-15T11:16:55;99135.22;;;3.12
25985;BMP280;66753;53.848;10.658;2024-01-15T11:47:09;99148.63;;;2.90
25985;BMP280;66753;53.848;10.658;2024-01-15T12:02:14;99159.41;;;2.80
25985;BMP280;66753;53.848;10.658;2024-01-15T12:17:16;99175.00;;;2.76
25985;BMP280;66753;53.848;10.658;2024-01-15T12:32:18;99209.47;;;2.70
25985;BMP280;66753;53.848;10.658;2024-01-15T12:47:22;99213.25;;;2.43
25985;BMP280;66753;53.848;10.658;2024-01-15T13:02:24;99227.34;;;2.59
25985;BMP280;66753;53.848;10.658;2024-01-15T13:17:26;99232.06;;;2.74
25985;BMP280;66753;53.848;10.658;2024-01-15T13:32:29;99268.78;;;2.86
25985;BMP280;66753;53.848;10.658;2024-01-15T13:47:31;99264.03;;;2.88
25985;BMP280;66753;53.848;10.658;2024-01-15T14:02:32;99283.28;;;2.84
25985;BMP280;66753;53.848;10.658;2024-01-15T14:17:34;99300.84;;;2.66
25985;BMP280;66753;53.848;10.658;2024-01-15T14:32:35;99325.63;;;2.52
25985;BMP280;66753;53.848;10.658;2024-01-15T14:47:38;99360.06;;;2.28
25985;BMP280;66753;53.848;10.658;2024-01-15T15:02:40;99369.09;;;2.05
25985;BMP280;66753;53.848;10.658;2024-01-15T15:17:42;99370.75;;;1.84
25985;BMP280;66753;53.848;10.658;2024-01-15T15:32:44;99414.22;;;1.80
25985;BMP280;66753;53.848;10.658;2024-01-15T15:47:45;99448.28;;;1.75
25985;BMP280;66753;53.848;10.658;2024-01-15T16:02:47;99482.38;;;1.70
25985;BMP280;66753;53.848;10.658;2024-01-15T16:17:49;99484.72;;;1.58
25985;BMP280;66753;53.848;10.658;2024-01-15T16:32:52;99500.47;;;1.44
25985;BMP280;66753;53.848;10.658;2024-01-15T16:47:53;99514.88;;;1.42
25985;BMP280;66753;53.848;10.658;2024-01-15T17:02:54;99522.97;;;1.32
25985;BMP280;66753;53.848;10.658;2024-01-15T17:17:56;99539.25;;;1.02
25985;BMP280;66753;53.848;10.658;2024-01-15T17:32:58;99563.81;;;0.74
25985;BMP280;66753;53.848;10.658;2024-01-15T17:48:00;99607.19;;;0.70
25985;BMP280;66753;53.848;10.658;2024-01-15T18:03:02;99629.97;;;0.78
25985;BMP280;66753;53.848;10.658;2024-01-15T18:18:04;99645.13;;;0.89
25985;BMP280;66753;53.848;10.658;2024-01-15T18:33:06;99655.00;;;1.06
25985;BMP280;66753;53.848;10.658;2024-01-15T18:48:08;99664.28;;;1.25
25985;BMP280;66753;53.848;10.658;2024-01-15T19:03:10;99674.88;;;1.29
25985;BMP280;66753;53.848;10.658;2024-01-15T19:18:12;99686.97;;;1.11
25985;BMP280;66753;53.848;10.658;2024-01-15T19:33:14;99720.13;;;1.11
25985;BMP280;66753;53.848;10.658;2024-01-15T19:48:16;99759.97;;;0.84
25985;BMP280;66753;53.848;10.658;2024-01-15T20:03:20;99758.84;;;0.72
25985;BMP280;66753;53.848;10.658;2024-01-15T20:18:23;99777.56;;;0.60
25985;BMP280;66753;53.848;10.658;2024-01-15T20:33:24;99809.69;;;0.56
25985;BMP280;66753;53.848;10.658;2024-01-15T20:48:26;99818.72;;;0.63
25985;BMP280;66753;53.848;10.658;2024-01-15T21:03:27;99860.75;;;0.57
25985;BMP280;66753;53.848;10.658;2024-01-15T21:18:31;99889.44;;;0.57
25985;BMP280;66753;53.848;10.658;2024-01-15T21:33:33;99871.19;;;0.38
25985;BMP280;66753;53.848;10.658;2024-01-15T21:48:38;99900.09;;;0.37
25985;BMP280;66753;53.848;10.658;2024-01-15T22:03:39;99917.94;;;0.30
25985;BMP280;66753;53.848;10.658;2024-01-15T22:18:40;99921.41;;;0.02
25985;BMP280;66753;53.848;10.658;2024-01-15T22:33:42;99919.72;;;-0.42
25985;BMP280;66753;53.848;10.658;2024-01-15T22:48:44;99934.16;;;-0.93
25985;BMP280;66753;53.848;10.658;2024-01-15T23:03:46;99938.81;;;-1.38
25985;BMP280;66753;53.848;10.658;2024-01-15T23:18:48;99956.34;;;-1.74
25985;BMP280;66753;53.848;10.658;2024-01-15T23:33:50;99975.09;;;-2.07
25985;BMP280;66753;53.848;10.658;2024-01-15T23:48:52;99993.78;;;-2.20
